Time;durP1;ratioP1;P1;durP2;ratioP2;P2;SDS_P1;SDS_P2;PMS_P1;PMS_P2;Temp;Humidity;BMP_temperature;BMP_pressure;BME280_temperature;BME280_humidity;BME280_pressure;Samples;Min_cycle;Max_cycle;Signal;HPM_P1;HPM_P2
2024/01/07 00:01:40;;;;;;;16.40;9.63;;;;;;;-0.44;100.00;100947.75;4969788;28;20201;-80
2024/01/07 00:04:06;;;;;;;14.37;9.20;;;;;;;-0.44;100.00;100947.75;4968247;28;20204;-80
2024/01/07 00:06:33;;;;;;;14.63;9.67;;;;;;;-0.41;100.00;100945.09;4967082;28;20227;-80
2024/01/07 00:08:59;;;;;;;15.63;10.10;;;;;;;-0.40;100.00;100947.69;4964374;28;20236;-80
2024/01/07 00:11:26;;;;;;;15.57;9.60;;;;;;;-0.37;100.00;100952.03;4970150;28;20209;-79
2024/01/07 00:13:52;;;;;;;16.60;10.10;;;;;;;-0.40;100.00;100952.94;4965708;28;20219;-80
2024/01/07 00:16:19;;;;;;;13.37;9.33;;;;;;;-0.39;100.00;100964.25;4971467;28;20204;-79
2024/01/07 00:18:47;;;;;;;14.03;9.27;;;;;;;-0.42;100.00;100959.06;4969408;28;20223;-80
2024/01/07 00:21:13;;;;;;;14.77;9.30;;;;;;;-0.43;100.00;100965.19;4968029;28;20208;-80
2024/01/07 00:23:39;;;;;;;16.50;9.97;;;;;;;-0.42;100.00;100956.44;4965870;28;20215;-79
2024/01/07 00:26:06;;;;;;;12.43;8.27;;;;;;;-0.44;100.00;100966.94;4966120;28;20200;-79
2024/01/07 00:28:33;;;;;;;14.40;9.70;;;;;;;-0.42;100.00;100965.16;4973664;28;20228;-78
2024/01/07 00:30:59;;;;;;;16.30;9.10;;;;;;;-0.43;100.00;100973.03;4967693;28;20208;-78
2024/01/07 00:33:26;;;;;;;12.20;7.03;;;;;;;-0.43;100.00;100967.81;4971326;28;20211;-79
2024/01/07 00:35:54;;;;;;;15.30;9.20;;;;;;;-0.46;100.00;100973.94;4973932;28;20201;-78
2024/01/07 00:38:20;;;;;;;12.43;8.57;;;;;;;-0.46;100.00;100976.56;4976991;28;20235;-78
2024/01/07 00:40:46;;;;;;;13.97;9.00;;;;;;;-0.47;100.00;100981.81;4974419;28;20216;-79
2024/01/07 00:43:13;;;;;;;15.20;8.63;;;;;;;-0.47;100.00;100981.81;4973243;28;20208;-77
2024/01/07 00:45:39;;;;;;;12.93;8.80;;;;;;;-0.46;100.00;100988.78;4975592;28;20208;-78
2024/01/07 00:48:07;;;;;;;12.00;8.77;;;;;;;-0.46;100.00;100987.03;4972506;28;20220;-77
2024/01/07 00:50:33;;;;;;;13.80;8.27;;;;;;;-0.45;100.00;100998.34;4965806;28;20233;-77
2024/01/07 00:53:01;;;;;;;16.03;9.17;;;;;;;-0.46;100.00;100996.63;4967446;28;20208;-78
2024/01/07 00:55:28;;;;;;;12.50;8.43;;;;;;;-0.49;100.00;101004.50;4968511;28;20208;-77
2024/01/07 00:57:54;;;;;;;11.60;7.80;;;;;;;-0.48;100.00;101004.47;4968353;28;20228;-78
2024/01/07 01:00:21;;;;;;;15.23;10.00;;;;;;;-0.49;100.00;101015.84;4967918;28;20212;-77
2024/01/07 01:02:48;;;;;;;13.77;9.43;;;;;;;-0.50;100.00;101014.09;4968253;28;20603;-77
2024/01/07 01:05:17;;;;;;;16.43;9.93;;;;;;;-0.50;100.00;101014.09;4971076;28;20215;-78
2024/01/07 01:07:43;;;;;;;13.73;9.40;;;;;;;-0.51;100.00;101014.13;4974119;28;20809;-78
2024/01/07 01:10:16;;;;;;;17.20;10.47;;;;;;;-0.51;100.00;101016.72;4969967;28;20219;-77
2024/01/07 01:12:43;;;;;;;16.77;10.60;;;;;;;-0.50;100.00;101023.69;4966671;28;20212;-78
2024/01/07 01:15:10;;;;;;;17.53;10.53;;;;;;;-0.50;100.00;101019.34;4967514;28;20316;-78
2024/01/07 01:17:36;;;;;;;19.03;9.47;;;;;;;-0.49;100.00;101022.81;4975818;28;20236;-78
2024/01/07 01:20:06;;;;;;;16.80;10.47;;;;;;;-0.52;100.00;101030.69;4969116;28;20659;-77
2024/01/07 01:22:32;;;;;;;16.60;10.53;;;;;;;-0.54;100.00;101032.50;4971769;28;20212;-78
2024/01/07 01:25:03;;;;;;;17.13;9.87;;;;;;;-0.56;100.00;101032.50;4975249;28;20220;-79
2024/01/07 01:27:33;;;;;;;12.63;8.33;;;;;;;-0.58;100.00;101036.03;4971813;28;20245;-79
2024/01/07 01:30:00;;;;;;;13.57;9.17;;;;;;;-0.60;100.00;101037.78;4971690;28;20225;-78
2024/01/07 01:32:29;;;;;;;13.53;8.73;;;;;;;-0.63;100.00;101043.06;4972508;28;20693;-78
2024/01/07 01:34:55;;;;;;;16.90;9.77;;;;;;;-0.65;100.00;101052.66;4972849;28;20204;-78
2024/01/07 01:37:23;;;;;;;14.03;9.77;;;;;;;-0.67;100.00;101046.56;4972826;28;20227;-78
2024/01/07 01:39:50;;;;;;;14.90;9.73;;;;;;;-0.66;100.00;101048.31;4971362;28;20220;-78
2024/01/07 01:42:18;;;;;;;19.50;10.50;;;;;;;-0.67;100.00;101059.66;4972737;28;20220;-78
2024/01/07 01:44:49;;;;;;;16.37;9.50;;;;;;;-0.66;100.00;101053.53;4971630;28;20212;-78
2024/01/07 01:47:15;;;;;;;13.77;9.80;;;;;;;-0.71;100.00;101067.53;4972478;28;20319;-79
2024/01/07 01:49:42;;;;;;;12.40;9.60;;;;;;;-0.71;100.00;101066.66;4971653;28;20717;-77
2024/01/07 01:52:13;;;;;;;16.97;10.23;;;;;;;-0.72;100.00;101078.88;4974045;28;20225;-78
2024/01/07 01:54:43;;;;;;;15.50;9.43;;;;;;;-0.71;100.00;101072.75;4967987;28;20577;-78
2024/01/07 01:57:14;;;;;;;15.60;9.30;;;;;;;-0.73;100.00;101084.16;4966422;28;20212;-78
2024/01/07 01:59:41;;;;;;;13.63;9.20;;;;;;;-0.76;100.00;101090.28;4966366;28;20212;-79
2024/01/07 02:02:09;;;;;;;13.37;6.70;;;;;;;-0.74;100.00;101088.50;4972508;28;20295;-79
2024/01/07 02:04:35;;;;;;;14.37;8.30;;;;;;;-0.79;100.00;101085.06;4974708;28;20208;-79
2024/01/07 02:07:02;;;;;;;14.37;9.67;;;;;;;-0.78;100.00;101084.19;4975221;28;20552;-78
2024/01/07 02:09:28;;;;;;;12.90;8.47;;;;;;;-0.81;100.00;101085.97;4971728;28;20568;-79
2024/01/07 02:12:01;;;;;;;13.83;9.47;;;;;;;-0.84;100.00;101091.22;4972510;28;20557;-79
2024/01/07 02:14:28;;;;;;;11.63;7.77;;;;;;;-0.84;100.00;101097.31;4966620;28;20662;-78
2024/01/07 02:16:54;;;;;;;13.10;8.73;;;;;;;-0.84;100.00;101099.91;4970055;28;20208;-79
2024/01/07 02:19:23;;;;;;;12.30;8.23;;;;;;;-0.89;100.00;101101.72;4972243;28;20219;-79
2024/01/07 02:21:51;;;;;;;12.77;7.93;;;;;;;-0.91;100.00;101100.88;4965488;28;20216;-79
2024/01/07 02:24:19;;;;;;;13.33;7.40;;;;;;;-0.89;100.00;101112.16;4969483;28;20554;-78
2024/01/07 02:26:46;;;;;;;13.77;7.50;;;;;;;-0.91;100.00;101113.97;4971998;28;20209;-79
2024/01/07 02:29:12;;;;;;;11.57;8.33;;;;;;;-0.94;100.00;101111.38;4969855;28;20232;-78
2024/01/07 02:31:39;;;;;;;10.80;6.53;;;;;;;-0.95;100.00;101114.00;4970732;28;20212;-79
2024/01/07 02:34:05;;;;;;;11.37;6.60;;;;;;;-0.97;100.00;101115.75;4973638;28;20215;-78
2024/01/07 02:36:31;;;;;;;10.30;6.37;;;;;;;-0.97;100.00;101116.63;4977549;28;20215;-78
2024/01/07 02:38:58;;;;;;;9.00;6.20;;;;;;;-1.00;100.00;101128.84;4975912;28;20239;-78
2024/01/07 02:41:26;;;;;;;12.07;6.20;;;;;;;-1.01;100.00;101124.50;4968983;28;20272;-78
2024/01/07 02:43:53;;;;;;;9.03;6.17;;;;;;;-1.07;100.00;101128.88;4969800;28;20673;-78
2024/01/07 02:46:20;;;;;;;13.37;6.80;;;;;;;-1.08;100.00;101128.91;4969872;28;20232;-79
2024/01/07 02:48:47;;;;;;;8.43;5.90;;;;;;;-1.07;100.00;101130.63;4968240;28;20231;-78
2024/01/07 02:51:13;;;;;;;7.77;5.83;;;;;;;-1.11;100.00;101129.81;4969240;28;20239;-79
2024/01/07 02:53:40;;;;;;;9.20;5.07;;;;;;;-1.12;100.00;101137.66;4974608;28;20218;-78
2024/01/07 02:56:08;;;;;;;7.03;5.13;;;;;;;-1.13;100.00;101136.78;4971248;28;20228;-79
2024/01/07 02:58:36;;;;;;;10.37;6.63;;;;;;;-1.13;100.00;101141.16;4972808;28;20236;-80
2024/01/07 03:01:03;;;;;;;8.10;6.00;;;;;;;-1.16;100.00;101144.66;4969511;28;20203;-79
2024/01/07 03:03:29;;;;;;;10.60;6.97;;;;;;;-1.16;100.00;101141.16;4969500;28;20219;-78
2024/01/07 03:05:56;;;;;;;10.30;6.23;;;;;;;-1.18;100.00;101145.53;4966664;28;20212;-80
2024/01/07 03:08:22;;;;;;;10.07;6.67;;;;;;;-1.19;100.00;101147.28;4973649;28;20224;-80
2024/01/07 03:10:49;;;;;;;11.70;6.60;;;;;;;-1.16;100.00;101159.47;4970563;28;20280;-78
2024/01/07 03:13:15;;;;;;;9.57;6.00;;;;;;;-1.15;100.00;101162.06;4968484;28;20706;-79
2024/01/07 03:15:43;;;;;;;9.00;6.77;;;;;;;-1.18;100.00;101169.06;4974639;28;20212;-80
2024/01/07 03:18:09;;;;;;;11.10;6.07;;;;;;;-1.21;100.00;101158.63;4968525;28;20228;-79
2024/01/07 03:20:36;;;;;;;8.20;5.90;;;;;;;-1.22;100.00;101160.38;4973501;28;20247;-79
2024/01/07 03:23:02;;;;;;;8.63;5.50;;;;;;;-1.27;100.00;101159.56;4970450;28;20212;-78
2024/01/07 03:25:29;;;;;;;9.90;5.63;;;;;;;-1.27;100.00;101169.13;4967321;28;20220;-78
2024/01/07 03:27:55;;;;;;;12.73;6.23;;;;;;;-1.30;100.00;101170.03;4964650;28;20228;-80
2024/01/07 03:30:22;;;;;;;6.47;4.80;;;;;;;-1.32;100.00;101171.78;4965632;28;20228;-78
2024/01/07 03:32:50;;;;;;;9.80;6.50;;;;;;;-1.35;100.00;101171.78;4977073;28;20207;-79
2024/01/07 03:35:16;;;;;;;10.77;6.90;;;;;;;-1.36;100.00;101182.25;4972259;28;20208;-78
2024/01/07 03:37:43;;;;;;;9.00;6.93;;;;;;;-1.41;100.00;101177.03;4976127;28;20629;-78
2024/01/07 03:40:12;;;;;;;11.23;7.10;;;;;;;-1.41;100.00;101183.13;4971951;28;20577;-79
2024/01/07 03:42:39;;;;;;;8.60;6.23;;;;;;;-1.39;100.00;101183.13;4968618;28;20212;-79
2024/01/07 03:45:06;;;;;;;9.53;6.60;;;;;;;-1.37;100.00;101188.34;4972538;28;20266;-80
2024/01/07 03:47:32;;;;;;;8.70;5.83;;;;;;;-1.38;100.00;101184.88;4967423;28;20235;-80
2024/01/07 03:50:00;;;;;;;8.90;5.63;;;;;;;-1.37;100.00;101198.78;4967208;28;20286;-80
2024/01/07 03:52:28;;;;;;;8.60;6.23;;;;;;;-1.41;100.00;101190.97;4968605;28;20226;-79
2024/01/07 03:54:54;;;;;;;10.23;6.13;;;;;;;-1.41;100.00;101193.59;4974618;28;20208;-79
2024/01/07 03:57:21;;;;;;;7.93;5.27;;;;;;;-1.48;100.00;101196.25;4973069;28;20235;-79
2024/01/07 03:59:47;;;;;;;8.43;4.13;;;;;;;-1.47;100.00;101196.25;4967935;28;20715;-79
2024/01/07 04:02:16;;;;;;;6.10;4.30;;;;;;;-1.50;100.00;101201.50;4968746;28;20255;-78
2024/01/07 04:04:43;;;;;;;6.00;3.90;;;;;;;-1.53;100.00;101209.34;4968914;28;20207;-78
2024/01/07 04:07:10;;;;;;;7.93;4.40;;;;;;;-1.52;100.00;101211.06;4967185;28;20204;-78
2024/01/07 04:09:37;;;;;;;6.00;4.63;;;;;;;-1.49;100.00;101210.19;4972670;28;20649;-79
2024/01/07 04:12:04;;;;;;;6.20;4.17;;;;;;;-1.49;100.00;101210.19;4974529;28;20623;-78
2024/01/07 04:14:33;;;;;;;5.53;3.97;;;;;;;-1.49;100.00;101225.88;4973346;28;20204;-79
2024/01/07 04:17:00;;;;;;;7.13;4.50;;;;;;;-1.53;100.00;101222.41;4977570;28;20582;-79
2024/01/07 04:19:26;;;;;;;8.33;3.73;;;;;;;-1.55;100.00;101233.72;4973115;28;20649;-78
2024/01/07 04:21:52;;;;;;;6.90;3.77;;;;;;;-1.57;100.00;101232.84;4975485;28;20205;-79
2024/01/07 04:24:20;;;;;;;7.67;4.47;;;;;;;-1.56;100.00;101232.84;4969507;28;20227;-79
2024/01/07 04:26:47;;;;;;;6.07;3.83;;;;;;;-1.55;100.00;101233.72;4976690;28;20200;-78
2024/01/07 04:29:13;;;;;;;7.87;4.10;;;;;;;-1.58;100.00;101232.00;4969918;28;20235;-78
2024/01/07 04:31:40;;;;;;;5.47;3.57;;;;;;;-1.54;99.18;101249.38;4966747;28;20228;-79
2024/01/07 04:34:06;;;;;;;6.83;3.90;;;;;;;-1.57;99.61;101238.06;4965748;28;20219;-79
2024/01/07 04:36:32;;;;;;;4.83;2.93;;;;;;;-1.57;99.18;101254.63;4967774;28;20661;-78
2024/01/07 04:38:59;;;;;;;4.73;3.10;;;;;;;-1.61;97.60;101249.44;4975694;28;20723;-79
2024/01/07 04:41:27;;;;;;;3.50;2.50;;;;;;;-1.62;96.49;101243.34;4966136;28;20207;-79
2024/01/07 04:43:53;;;;;;;3.50;2.13;;;;;;;-1.66;96.21;101254.66;4968458;28;20204;-79
2024/01/07 04:46:20;;;;;;;4.57;2.97;;;;;;;-1.68;96.13;101263.38;4970055;28;20230;-79
2024/01/07 04:48:46;;;;;;;5.30;2.87;;;;;;;-1.69;96.59;101272.97;4970054;28;20252;-78
2024/01/07 04:51:13;;;;;;;5.00;3.00;;;;;;;-1.69;97.12;101259.91;4967644;28;20234;-79
2024/01/07 04:53:39;;;;;;;3.10;2.57;;;;;;;-1.70;95.99;101266.00;4969339;28;20204;-78
2024/01/07 04:56:06;;;;;;;4.83;2.47;;;;;;;-1.68;95.25;101272.09;4971249;28;20216;-79
2024/01/07 04:58:34;;;;;;;4.47;2.63;;;;;;;-1.70;95.26;101271.22;4964175;28;20225;-78
2024/01/07 05:01:00;;;;;;;2.43;2.23;;;;;;;-1.65;93.43;101279.03;4969822;28;20208;-78
2024/01/07 05:03:27;;;;;;;4.03;2.17;;;;;;;-1.66;93.38;101274.69;4965996;28;20566;-79
2024/01/07 05:05:53;;;;;;;4.30;2.50;;;;;;;-1.66;92.38;101286.00;4965669;28;20734;-79
2024/01/07 05:08:20;;;;;;;4.40;2.27;;;;;;;-1.67;92.40;101286.00;4969185;28;20262;-79
2024/01/07 05:10:46;;;;;;;4.43;2.50;;;;;;;-1.67;91.97;101281.66;4971593;28;20566;-78
2024/01/07 05:13:13;;;;;;;5.80;2.47;;;;;;;-1.68;92.31;101282.53;4967790;28;20208;-77
2024/01/07 05:15:40;;;;;;;4.40;2.57;;;;;;;-1.66;92.22;101291.22;4974010;28;20295;-78
2024/01/07 05:18:08;;;;;;;3.53;2.20;;;;;;;-1.65;92.25;101289.50;4972431;28;20236;-80
2024/01/07 05:20:35;;;;;;;3.73;2.57;;;;;;;-1.61;91.34;101299.91;4977536;28;20212;-79
2024/01/07 05:23:01;;;;;;;3.77;2.20;;;;;;;-1.63;89.88;101304.28;4969025;28;20212;-79
2024/01/07 05:25:28;;;;;;;3.90;2.30;;;;;;;-1.64;90.31;101299.94;4974771;28;20371;-79
2024/01/07 05:27:55;;;;;;;3.13;2.13;;;;;;;-1.65;89.99;101313.88;4979584;28;20227;-79
2024/01/07 05:30:22;;;;;;;4.10;2.20;;;;;;;-1.64;90.69;101310.38;4976749;28;20208;-78
2024/01/07 05:32:49;;;;;;;3.50;2.10;;;;;;;-1.63;90.37;101324.31;4971856;28;20219;-78
2024/01/07 05:35:16;;;;;;;3.67;2.00;;;;;;;-1.64;90.45;101320.84;4975972;28;20212;-78
2024/01/07 05:37:42;;;;;;;4.43;2.10;;;;;;;-1.62;90.57;101326.91;4973059;28;20220;-78
2024/01/07 05:40:10;;;;;;;3.63;1.87;;;;;;;-1.57;89.34;101326.88;4971607;28;20216;-78
2024/01/07 05:42:36;;;;;;;2.73;1.87;;;;;;;-1.61;89.22;101327.78;4974560;28;20693;-78
2024/01/07 05:45:03;;;;;;;3.37;2.40;;;;;;;-1.63;88.20;101335.63;4968081;28;20211;-78
2024/01/07 05:47:30;;;;;;;3.27;2.07;;;;;;;-1.66;87.67;101330.41;4967232;28;20284;-79
2024/01/07 05:49:57;;;;;;;4.27;2.53;;;;;;;-1.68;85.85;101340.00;4972991;28;20212;-79
2024/01/07 05:52:24;;;;;;;2.57;1.70;;;;;;;-1.70;86.27;101341.72;4971219;28;20782;-78
2024/01/07 05:54:51;;;;;;;4.13;2.03;;;;;;;-1.73;86.27;101343.47;4962663;28;20264;-79
2024/01/07 05:57:17;;;;;;;5.00;2.37;;;;;;;-1.73;86.60;101354.78;4971996;28;20232;-78
2024/01/07 05:59:45;;;;;;;4.60;2.57;;;;;;;-1.75;87.12;101367.84;4972293;28;20216;-78
2024/01/07 06:02:12;;;;;;;2.33;1.50;;;;;;;-1.73;85.13;101352.19;4976553;28;20211;-78
2024/01/07 06:04:38;;;;;;;4.13;2.67;;;;;;;-1.77;84.14;101358.25;4972816;28;20230;-79
2024/01/07 06:07:07;;;;;;;2.60;1.67;;;;;;;-1.79;82.81;101363.50;4974549;28;20578;-79
2024/01/07 06:09:33;;;;;;;2.83;1.97;;;;;;;-1.84;83.38;101364.38;4970908;28;20204;-80
2024/01/07 06:12:00;;;;;;;3.03;1.87;;;;;;;-1.88;83.68;101373.97;4972072;28;20220;-78
2024/01/07 06:14:26;;;;;;;4.20;2.20;;;;;;;-1.91;82.67;101378.31;4969013;28;20205;-79
2024/01/07 06:16:53;;;;;;;2.77;2.00;;;;;;;-1.95;83.59;101376.56;4977148;28;20846;-78
2024/01/07 06:19:20;;;;;;;4.47;2.60;;;;;;;-1.94;84.68;101383.53;4967670;28;20761;-78
2024/01/07 06:21:47;;;;;;;5.00;2.73;;;;;;;-1.95;85.15;101397.44;4969761;28;20652;-78
2024/01/07 06:24:14;;;;;;;2.80;2.13;;;;;;;-1.95;84.88;101389.63;4971147;28;20212;-79
2024/01/07 06:26:41;;;;;;;3.80;2.10;;;;;;;-1.96;84.04;101404.41;4971652;28;20577;-79
2024/01/07 06:29:09;;;;;;;5.10;2.17;;;;;;;-1.96;83.81;101411.38;4972482;28;20605;-79
2024/01/07 06:31:36;;;;;;;3.10;2.20;;;;;;;-1.97;83.19;101414.88;4970463;28;20582;-78
2024/01/07 06:34:02;;;;;;;2.97;1.70;;;;;;;-2.00;82.97;101409.66;4974153;28;20215;-79
2024/01/07 06:36:28;;;;;;;4.67;2.50;;;;;;;-2.01;83.28;101413.13;4973929;28;20251;-79
2024/01/07 06:38:55;;;;;;;4.23;2.60;;;;;;;-2.01;84.68;101418.34;4970303;28;20713;-78
2024/01/07 06:41:23;;;;;;;3.47;2.33;;;;;;;-2.00;84.20;101427.91;4969551;28;20220;-78
2024/01/07 06:43:49;;;;;;;3.63;2.30;;;;;;;-2.02;84.51;101432.28;4972338;28;20215;-79
2024/01/07 06:46:16;;;;;;;4.43;2.43;;;;;;;-2.03;85.57;101435.75;4973957;28;20232;-79
2024/01/07 06:48:42;;;;;;;3.20;2.63;;;;;;;-2.04;84.72;101437.47;4975592;28;20231;-79
2024/01/07 06:51:09;;;;;;;4.13;2.77;;;;;;;-2.08;85.25;101434.88;4970148;28;20224;-80
2024/01/07 06:53:35;;;;;;;4.17;2.90;;;;;;;-2.07;84.89;101444.44;4968008;28;21033;-80
2024/01/07 06:56:02;;;;;;;4.13;2.73;;;;;;;-2.11;85.15;101449.66;4972636;28;21500;-78
2024/01/07 06:58:30;;;;;;;2.67;2.40;;;;;;;-2.12;85.20;101454.88;4974682;28;20228;-78
2024/01/07 07:00:56;;;;;;;7.43;3.17;;;;;;;-2.14;84.36;101456.59;4980417;28;20207;-79
2024/01/07 07:03:23;;;;;;;3.10;2.57;;;;;;;-2.14;84.21;101469.66;4969629;28;20216;-78
2024/01/07 07:05:49;;;;;;;3.40;2.30;;;;;;;-2.17;84.73;101470.53;4969620;28;20208;-79
2024/01/07 07:08:16;;;;;;;4.57;2.53;;;;;;;-2.16;84.99;101474.03;4974659;28;20227;-80
2024/01/07 07:10:42;;;;;;;5.13;2.50;;;;;;;-2.17;84.28;101485.31;4968984;28;20213;-79
2024/01/07 07:13:09;;;;;;;3.63;2.50;;;;;;;-2.15;84.45;101481.81;4968052;28;20288;-79
2024/01/07 07:15:37;;;;;;;3.67;2.33;;;;;;;-2.14;84.43;101500.97;4969902;28;20208;-80
2024/01/07 07:18:04;;;;;;;3.77;2.53;;;;;;;-2.16;84.67;101487.94;4970848;28;20234;-79
2024/01/07 07:20:30;;;;;;;2.97;2.67;;;;;;;-2.19;84.88;101497.50;4975478;28;20215;-80
2024/01/07 07:22:57;;;;;;;4.13;2.80;;;;;;;-2.18;84.46;101504.47;4965887;28;20200;-78
2024/01/07 07:25:23;;;;;;;2.80;2.13;;;;;;;-2.19;85.14;101508.81;4967353;28;20219;-78
2024/01/07 07:27:50;;;;;;;3.07;2.20;;;;;;;-2.18;84.74;101514.91;4973428;28;20228;-79
2024/01/07 07:30:16;;;;;;;4.17;2.40;;;;;;;-2.18;84.52;101521.00;4975122;28;20208;-80
2024/01/07 07:32:45;;;;;;;4.20;2.20;;;;;;;-2.21;84.79;101520.97;4969035;28;20224;-80
2024/01/07 07:35:11;;;;;;;3.70;2.40;;;;;;;-2.20;84.11;101520.09;4968502;28;20275;-80
2024/01/07 07:37:38;;;;;;;2.83;1.93;;;;;;;-2.22;84.08;101524.44;4968586;28;20228;-80
2024/01/07 07:40:06;;;;;;;3.20;2.43;;;;;;;-2.18;83.51;101527.94;4970858;28;20212;-78
2024/01/07 07:42:32;;;;;;;4.30;2.60;;;;;;;-2.21;83.84;101526.19;4971459;28;20204;-80
2024/01/07 07:44:59;;;;;;;3.07;2.00;;;;;;;-2.18;84.56;101527.94;4972945;28;20208;-78
2024/01/07 07:47:25;;;;;;;3.00;2.50;;;;;;;-2.21;84.63;101536.63;4968384;28;20232;-79
2024/01/07 07:49:53;;;;;;;2.83;2.40;;;;;;;-2.20;84.11;101538.38;4972024;28;20215;-79
2024/01/07 07:52:21;;;;;;;4.80;2.40;;;;;;;-2.18;84.46;101541.00;4970529;28;20243;-78
2024/01/07 07:54:48;;;;;;;6.70;3.13;;;;;;;-2.17;83.85;101547.94;4970224;28;20738;-80
2024/01/07 07:57:14;;;;;;;2.87;2.03;;;;;;;-2.13;83.48;101560.13;4970679;28;20207;-80
2024/01/07 07:59:41;;;;;;;3.20;2.23;;;;;;;-2.15;83.54;101557.50;4968727;28;20224;-78
2024/01/07 08:02:08;;;;;;;4.70;2.20;;;;;;;-2.15;83.34;101567.09;4966410;28;20204;-79
2024/01/07 08:04:35;;;;;;;4.27;3.10;;;;;;;-2.16;83.98;101571.44;4968467;28;20554;-79
2024/01/07 08:07:03;;;;;;;5.93;2.63;;;;;;;-2.17;84.03;101559.25;4967660;28;20655;-78
2024/01/07 08:09:29;;;;;;;4.07;2.83;;;;;;;-2.18;84.65;101567.97;4975859;28;20653;-78
2024/01/07 08:11:56;;;;;;;4.80;2.63;;;;;;;-2.17;83.74;101587.97;4971337;28;20819;-79
2024/01/07 08:14:22;;;;;;;4.87;3.27;;;;;;;-2.16;84.20;101581.88;4968001;28;20219;-79
2024/01/07 08:16:48;;;;;;;3.80;2.90;;;;;;;-2.11;83.64;101585.34;4971973;28;20204;-80
2024/01/07 08:19:15;;;;;;;5.80;3.50;;;;;;;-2.16;83.65;101592.31;4973768;28;20235;-79
2024/01/07 08:21:41;;;;;;;4.00;3.10;;;;;;;-2.16;84.46;101592.31;4975430;28;20204;-79
2024/01/07 08:24:10;;;;;;;3.97;3.20;;;;;;;-2.13;85.04;101597.53;4973857;28;20207;-81
2024/01/07 08:26:36;;;;;;;4.50;3.13;;;;;;;-2.11;84.78;101600.16;4970919;28;20204;-80
2024/01/07 08:29:03;;;;;;;4.33;2.80;;;;;;;-2.11;85.02;101603.63;4972310;28;20224;-79
2024/01/07 08:31:30;;;;;;;4.17;3.30;;;;;;;-2.12;85.22;101606.22;4969340;28;20231;-80
2024/01/07 08:33:56;;;;;;;4.70;3.10;;;;;;;-2.13;85.74;101610.56;4980583;28;20299;-79
2024/01/07 08:36:23;;;;;;;4.77;3.10;;;;;;;-2.11;86.70;101605.38;4969465;28;20212;-79
2024/01/07 08:38:50;;;;;;;5.07;2.80;;;;;;;-2.08;87.11;101614.94;4972390;28;20232;-79
2024/01/07 08:41:18;;;;;;;4.87;3.33;;;;;;;-2.10;87.17;101613.19;4962126;28;20223;-79
2024/01/07 08:43:45;;;;;;;4.00;3.10;;;;;;;-2.07;86.47;101620.19;4969076;28;20212;-78
2024/01/07 08:46:13;;;;;;;5.63;3.30;;;;;;;-2.07;86.28;101614.09;4968763;28;20212;-79
2024/01/07 08:48:40;;;;;;;6.13;3.60;;;;;;;-2.08;86.50;101628.00;4968713;28;20236;-79
2024/01/07 08:51:06;;;;;;;4.70;2.67;;;;;;;-2.08;87.17;101626.25;4974331;28;20585;-80
2024/01/07 08:53:33;;;;;;;3.97;2.83;;;;;;;-2.11;86.47;101624.50;4965352;28;20232;-82
2024/01/07 08:55:59;;;;;;;4.43;3.07;;;;;;;-2.07;85.88;101621.91;4971174;28;20218;-79
2024/01/07 08:58:27;;;;;;;4.40;3.50;;;;;;;-2.07;85.47;101621.91;4971440;28;20225;-78
2024/01/07 09:00:54;;;;;;;6.33;3.43;;;;;;;-2.08;86.26;101635.81;4974223;28;20748;-80
2024/01/07 09:03:20;;;;;;;6.67;3.67;;;;;;;-2.05;85.25;101635.84;4969607;28;20208;-78
2024/01/07 09:05:47;;;;;;;4.37;3.43;;;;;;;-2.06;85.67;101644.53;4967710;28;20212;-79
2024/01/07 09:08:14;;;;;;;4.57;3.10;;;;;;;-2.03;86.53;101644.56;4969276;28;20240;-81
2024/01/07 09:10:40;;;;;;;3.80;2.90;;;;;;;-2.03;86.98;101642.81;4967138;28;20211;-80
2024/01/07 09:13:07;;;;;;;5.87;3.30;;;;;;;-2.00;87.79;101650.66;4972924;28;20232;-80
2024/01/07 09:15:35;;;;;;;3.60;2.70;;;;;;;-2.01;88.04;101648.91;4972473;28;20653;-79
2024/01/07 09:18:01;;;;;;;5.07;3.13;;;;;;;-2.00;88.02;101653.28;4976023;28;20310;-79
2024/01/07 09:20:28;;;;;;;5.00;2.27;;;;;;;-1.99;88.33;101667.19;4972470;28;20205;-78
2024/01/07 09:22:55;;;;;;;4.17;2.47;;;;;;;-2.00;87.67;101661.09;4971994;28;20200;-79
2024/01/07 09:25:21;;;;;;;4.23;2.93;;;;;;;-2.02;87.59;101661.97;4967966;28;20216;-78
2024/01/07 09:27:47;;;;;;;4.83;2.10;;;;;;;-2.04;88.04;101667.19;4970527;28;20224;-78
2024/01/07 09:30:15;;;;;;;4.10;2.53;;;;;;;-2.05;88.09;101672.38;4979927;28;20214;-79
2024/01/07 09:32:43;;;;;;;3.43;2.50;;;;;;;-2.05;89.12;101672.38;4975412;28;20223;-79
2024/01/07 09:35:09;;;;;;;5.07;2.60;;;;;;;-2.05;88.98;101680.22;4968575;28;20213;-79
2024/01/07 09:37:36;;;;;;;4.70;2.97;;;;;;;-2.05;89.38;101680.22;4973803;28;20232;-79
2024/01/07 09:40:04;;;;;;;6.03;2.70;;;;;;;-2.06;90.15;101683.69;4978588;28;20632;-78
2024/01/07 09:42:30;;;;;;;4.83;2.30;;;;;;;-2.03;90.12;101686.31;4966095;28;20780;-78
2024/01/07 09:44:57;;;;;;;3.67;2.57;;;;;;;-2.02;89.38;101685.47;4964444;28;20205;-79
2024/01/07 09:47:24;;;;;;;5.77;3.20;;;;;;;-2.04;89.86;101687.19;4970071;28;20763;-80
2024/01/07 09:49:52;;;;;;;3.00;2.40;;;;;;;-2.05;88.81;101688.03;4970006;28;20218;-78
2024/01/07 09:52:20;;;;;;;5.97;3.03;;;;;;;-2.04;88.93;101685.44;4967025;28;20685;-78
2024/01/07 09:54:53;;;;;;;4.00;2.60;;;;;;;-2.05;88.56;101688.03;4971382;28;20215;-78
2024/01/07 09:57:20;;;;;;;4.00;2.80;;;;;;;-2.04;89.21;101687.19;4974482;28;20200;-79
2024/01/07 09:59:47;;;;;;;5.20;3.10;;;;;;;-2.04;89.14;101693.28;4968588;28;20618;-80
2024/01/07 10:02:16;;;;;;;5.90;2.27;;;;;;;-2.05;89.27;101678.47;4976499;28;20275;-81
2024/01/07 10:04:42;;;;;;;4.80;2.97;;;;;;;-2.04;89.37;101690.66;4968136;28;20216;-80
2024/01/07 10:07:10;;;;;;;3.30;2.33;;;;;;;-2.03;90.07;101696.75;4976424;28;20235;-79
2024/01/07 10:09:37;;;;;;;1.97;1.83;;;;;;;-2.03;89.23;101694.16;4967989;28;20209;-80
2024/01/07 10:12:03;;;;;;;3.00;2.30;;;;;;;-2.02;89.77;101703.72;4968983;28;20239;-80
2024/01/07 10:14:30;;;;;;;1.50;1.33;;;;;;;-2.04;89.46;101706.34;4970670;28;20212;-79
2024/01/07 10:16:58;;;;;;;3.53;2.57;;;;;;;-2.02;89.79;101698.50;4968661;28;20212;-78
2024/01/07 10:19:25;;;;;;;3.13;2.40;;;;;;;-2.02;89.62;101695.91;4972250;28;20232;-80
2024/01/07 10:22:02;;;;;;;3.67;2.27;;;;;;;-2.01;90.19;101701.13;4968070;28;20571;-80
2024/01/07 10:24:37;;;;;;;3.17;2.10;;;;;;;-2.01;90.03;101701.13;4973732;28;20215;-79
2024/01/07 10:27:04;;;;;;;4.80;2.33;;;;;;;-1.97;91.01;101694.19;4971417;28;20204;-79
2024/01/07 10:29:31;;;;;;;3.53;3.00;;;;;;;-1.95;91.34;101697.66;4973432;28;20633;-80
2024/01/07 10:31:58;;;;;;;2.90;2.00;;;;;;;-1.92;90.33;101700.28;4975203;28;20544;-77
2024/01/07 10:34:25;;;;;;;2.80;2.17;;;;;;;-1.91;90.28;101702.03;4976127;28;20216;-80
2024/01/07 10:36:53;;;;;;;3.77;2.50;;;;;;;-1.90;90.25;101696.81;4977591;28;20200;-80
2024/01/07 10:39:20;;;;;;;4.10;2.43;;;;;;;-1.89;90.26;101697.69;4968503;28;20247;-80
2024/01/07 10:41:48;;;;;;;3.67;2.57;;;;;;;-1.85;90.49;101702.06;4978478;28;20210;-79
2024/01/07 10:44:15;;;;;;;3.77;2.13;;;;;;;-1.83;90.29;101702.94;4972733;28;20215;-79
2024/01/07 10:46:43;;;;;;;3.20;2.30;;;;;;;-1.83;90.17;101709.03;4971165;28;20219;-79
2024/01/07 10:49:20;;;;;;;3.10;2.10;;;;;;;-1.83;90.20;101708.16;4969855;28;20220;-78
2024/01/07 10:51:48;;;;;;;2.97;2.17;;;;;;;-1.84;89.89;101706.41;4973957;28;20199;-79
2024/01/07 10:54:19;;;;;;;3.10;2.30;;;;;;;-1.83;89.75;101710.78;4967823;28;20295;-79
2024/01/07 10:56:49;;;;;;;3.47;1.93;;;;;;;-1.81;90.83;101709.06;4972560;28;20209;-80
2024/01/07 10:59:17;;;;;;;3.60;2.53;;;;;;;-1.80;90.43;101713.41;4969724;28;20721;-80
2024/01/07 11:01:44;;;;;;;3.27;2.20;;;;;;;-1.79;90.85;101707.28;4970410;28;20219;-81
2024/01/07 11:04:17;;;;;;;3.97;1.73;;;;;;;-1.78;90.75;101717.75;4975177;28;20197;-79
2024/01/07 11:06:50;;;;;;;4.47;2.47;;;;;;;-1.76;89.92;101712.53;4971915;28;20208;-79
2024/01/07 11:09:24;;;;;;;3.37;2.43;;;;;;;-1.71;90.37;101710.81;4969938;28;20243;-79
2024/01/07 11:11:52;;;;;;;3.60;2.13;;;;;;;-1.72;90.17;101703.84;4972385;28;20230;-79
2024/01/07 11:14:44;;;;;;;4.17;2.50;;;;;;;-1.72;90.73;101714.28;4968983;28;20229;-79
2024/01/07 11:17:36;;;;;;;3.73;2.00;;;;;;;-1.69;90.58;101710.81;4969234;28;20906;-81
2024/01/07 11:20:03;;;;;;;3.80;2.20;;;;;;;-1.69;90.42;101706.47;4965712;28;20204;-79